Time;durP1;ratioP1;P1;durP2;ratioP2;P2;SDS_P1;SDS_P2;PMS_P1;PMS_P2;Temp;Humidity;BMP_temperature;BMP_pressure;BME280_temperature;BME280_humidity;BME280_pressure;Samples;Min_cycle;Max_cycle;Signal;HPM_P1;HPM_P2
2024/02/14 00:02:16;;;;;;;13.07;7.68;;;;;;;;;;5026089;28;20030;-60
2024/02/14 00:04:42;;;;;;;13.20;7.78;;;;;;;;;;5048259;22;20061;-50
2024/02/14 00:07:08;;;;;;;13.57;8.52;;;;;;;;;;5048815;28;20029;-56
2024/02/14 00:09:34;;;;;;;13.10;7.90;;;;;;;;;;5047026;28;20040;-53
2024/02/14 00:12:00;;;;;;;13.15;7.90;;;;;;;;;;5047124;28;20542;-55
2024/02/14 00:14:26;;;;;;;13.43;8.10;;;;;;;;;;5048299;28;20055;-50
2024/02/14 00:16:52;;;;;;;13.45;8.20;;;;;;;;;;5049435;28;20036;-52
2024/02/14 00:19:18;;;;;;;15.65;9.45;;;;;;;;;;5052521;28;20033;-52
2024/02/14 00:21:44;;;;;;;13.43;8.10;;;;;;;;;;5052385;28;20037;-52
2024/02/14 00:24:11;;;;;;;13.35;8.32;;;;;;;;;;5052939;28;20021;-51
2024/02/14 00:26:39;;;;;;;13.80;8.93;;;;;;;;;;5051812;28;20537;-49
2024/02/14 00:29:05;;;;;;;13.65;8.80;;;;;;;;;;5053307;28;20021;-54
2024/02/14 00:31:31;;;;;;;13.60;8.75;;;;;;;;;;5052837;28;20028;-54
2024/02/14 00:33:57;;;;;;;13.50;8.52;;;;;;;;;;5052530;28;20024;-52
2024/02/14 00:36:23;;;;;;;13.45;8.30;;;;;;;;;;5052823;28;20479;-53
2024/02/14 00:38:49;;;;;;;13.48;8.40;;;;;;;;;;5052791;28;20043;-53
2024/02/14 00:41:15;;;;;;;13.25;8.25;;;;;;;;;;5052430;28;20546;-54
2024/02/14 00:43:41;;;;;;;13.43;8.25;;;;;;;;;;5052532;28;20021;-54
2024/02/14 00:46:07;;;;;;;13.32;7.95;;;;;;;;;;5052662;28;20518;-54
2024/02/14 00:48:33;;;;;;;13.45;8.30;;;;;;;;;;5052739;28;20060;-54
2024/02/14 00:50:59;;;;;;;13.48;8.50;;;;;;;;;;5052492;28;20021;-53
2024/02/14 00:53:25;;;;;;;13.63;8.88;;;;;;;;;;5052511;28;20036;-51
2024/02/14 00:55:51;;;;;;;13.80;9.20;;;;;;;;;;5051586;28;20017;-52
2024/02/14 00:58:17;;;;;;;13.57;8.60;;;;;;;;;;5052264;28;20048;-52
2024/02/14 01:00:43;;;;;;;13.52;8.43;;;;;;;;;;5052248;28;20023;-52
2024/02/14 01:03:12;;;;;;;13.38;8.05;;;;;;;;;;5052144;28;20100;-52
2024/02/14 01:05:38;;;;;;;13.32;8.00;;;;;;;;;;5052099;28;20487;-50
2024/02/14 01:08:05;;;;;;;13.25;7.95;;;;;;;;;;5052089;28;20036;-54
2024/02/14 01:10:31;;;;;;;13.52;8.48;;;;;;;;;;5052193;28;20025;-51
2024/02/14 01:12:57;;;;;;;13.23;7.90;;;;;;;;;;5050678;28;20029;-50
2024/02/14 01:15:23;;;;;;;13.35;8.07;;;;;;;;;;5052004;28;20037;-53
2024/02/14 01:17:49;;;;;;;13.38;8.10;;;;;;;;;;5052297;28;20029;-54
2024/02/14 01:20:15;;;;;;;13.90;9.00;;;;;;;;;;5052147;28;20033;-53
2024/02/14 01:22:41;;;;;;;13.23;7.85;;;;;;;;;;5051754;28;20514;-53
2024/02/14 01:25:10;;;;;;;13.35;8.20;;;;;;;;;;5051944;28;20090;-53
2024/02/14 01:27:36;;;;;;;13.35;7.97;;;;;;;;;;5051935;28;20567;-50
2024/02/14 01:30:04;;;;;;;13.27;8.00;;;;;;;;;;5052112;28;20025;-52
2024/02/14 01:32:30;;;;;;;14.02;8.52;;;;;;;;;;5050641;28;20115;-54
2024/02/14 01:34:56;;;;;;;14.88;11.55;;;;;;;;;;5051852;28;20533;-50
2024/02/14 01:37:22;;;;;;;12.90;7.65;;;;;;;;;;5051805;28;20025;-55
2024/02/14 01:39:48;;;;;;;14.38;8.40;;;;;;;;;;5051691;28;20471;-50
2024/02/14 01:42:14;;;;;;;13.27;8.10;;;;;;;;;;5051429;28;20060;-53
2024/02/14 01:44:40;;;;;;;13.30;7.93;;;;;;;;;;5051627;28;20036;-52
2024/02/14 01:47:06;;;;;;;13.23;8.15;;;;;;;;;;5051396;28;20052;-49
2024/02/14 01:49:33;;;;;;;12.98;7.55;;;;;;;;;;5051399;28;20526;-53
2024/02/14 01:52:02;;;;;;;13.27;8.18;;;;;;;;;;5051116;28;20699;-51
2024/02/14 01:54:29;;;;;;;13.32;7.90;;;;;;;;;;5051323;28;20519;-53
2024/02/14 01:56:55;;;;;;;13.00;7.70;;;;;;;;;;5051192;28;20025;-53
2024/02/14 01:59:21;;;;;;;13.13;7.70;;;;;;;;;;5051344;28;20598;-49
2024/02/14 02:01:47;;;;;;;13.02;7.70;;;;;;;;;;5050971;28;20104;-49
2024/02/14 02:04:13;;;;;;;13.15;7.88;;;;;;;;;;5050903;28;20052;-53
2024/02/14 02:06:41;;;;;;;13.07;7.90;;;;;;;;;;5051076;28;20029;-50
2024/02/14 02:09:07;;;;;;;12.70;7.40;;;;;;;;;;5051022;28;20108;-52
2024/02/14 02:11:43;;;;;;;12.93;7.65;;;;;;;;;;5050881;28;20044;-50
2024/02/14 02:14:09;;;;;;;16.20;8.75;;;;;;;;;;5050821;28;20112;-52
2024/02/14 02:16:35;;;;;;;13.38;8.00;;;;;;;;;;5050773;28;20096;-52
2024/02/14 02:19:01;;;;;;;13.20;7.90;;;;;;;;;;5051211;28;20039;-51
2024/02/14 02:21:27;;;;;;;12.77;7.55;;;;;;;;;;5050616;28;20059;-53
2024/02/14 02:23:53;;;;;;;13.70;7.90;;;;;;;;;;5049381;28;20060;-55
2024/02/14 02:26:19;;;;;;;12.93;7.60;;;;;;;;;;5050652;28;20025;-51
2024/02/14 02:28:46;;;;;;;12.77;7.45;;;;;;;;;;5048457;28;20130;-52
2024/02/14 02:31:12;;;;;;;13.52;8.00;;;;;;;;;;5050586;28;20387;-56
2024/02/14 02:33:38;;;;;;;13.27;7.88;;;;;;;;;;5050407;28;20021;-51
2024/02/14 02:36:06;;;;;;;13.18;7.60;;;;;;;;;;5050452;28;20565;-50
2024/02/14 02:38:32;;;;;;;13.32;7.90;;;;;;;;;;5049284;28;20025;-50
2024/02/14 02:40:58;;;;;;;16.15;8.50;;;;;;;;;;5049777;28;20104;-52
2024/02/14 02:43:24;;;;;;;13.27;7.88;;;;;;;;;;5049073;28;20044;-53
2024/02/14 02:45:50;;;;;;;13.32;8.00;;;;;;;;;;5050514;28;20055;-50
2024/02/14 02:48:16;;;;;;;13.35;7.90;;;;;;;;;;5050725;28;20025;-48
2024/02/14 02:50:44;;;;;;;13.30;7.90;;;;;;;;;;5050405;28;20427;-53
2024/02/14 02:53:11;;;;;;;13.45;8.20;;;;;;;;;;5050183;28;20128;-48
2024/02/14 02:55:37;;;;;;;15.45;9.13;;;;;;;;;;5050218;28;20033;-52
2024/02/14 02:58:05;;;;;;;13.65;8.85;;;;;;;;;;5048836;28;20029;-52
2024/02/14 03:00:31;;;;;;;13.63;8.73;;;;;;;;;;5050076;28;20111;-48
2024/02/14 03:02:57;;;;;;;14.00;9.55;;;;;;;;;;5049912;28;20171;-51
2024/02/14 03:05:23;;;;;;;13.68;8.70;;;;;;;;;;5049912;28;20036;-51
2024/02/14 03:07:50;;;;;;;13.60;8.60;;;;;;;;;;5050105;28;20399;-51
2024/02/14 03:10:20;;;;;;;14.13;8.60;;;;;;;;;;5048710;28;20050;-52
2024/02/14 03:12:50;;;;;;;13.85;8.25;;;;;;;;;;5048661;28;20021;-52
2024/02/14 03:15:16;;;;;;;13.45;8.30;;;;;;;;;;5049844;28;20021;-51
2024/02/14 03:17:42;;;;;;;13.45;8.15;;;;;;;;;;5049978;28;20055;-53
2024/02/14 03:20:14;;;;;;;13.80;8.60;;;;;;;;;;5050073;28;20041;-52
2024/02/14 03:22:47;;;;;;;15.43;8.48;;;;;;;;;;5049597;28;20506;-56
2024/02/14 03:25:14;;;;;;;13.48;8.00;;;;;;;;;;5049793;28;20399;-50
2024/02/14 03:27:40;;;;;;;13.38;8.20;;;;;;;;;;5049972;28;20669;-55
2024/02/14 03:30:06;;;;;;;13.50;8.10;;;;;;;;;;5049899;28;20048;-55
2024/02/14 03:32:32;;;;;;;13.40;7.93;;;;;;;;;;5049631;28;20060;-53
2024/02/14 03:35:00;;;;;;;13.60;8.70;;;;;;;;;;5048577;28;20060;-57
2024/02/14 03:37:26;;;;;;;13.25;7.78;;;;;;;;;;5049984;28;20120;-50
2024/02/14 03:39:52;;;;;;;13.40;8.35;;;;;;;;;;5049968;28;20104;-52
2024/02/14 03:42:19;;;;;;;13.23;7.82;;;;;;;;;;5048398;28;20091;-49
2024/02/14 03:44:45;;;;;;;13.15;7.78;;;;;;;;;;5049987;28;20180;-52
2024/02/14 03:47:13;;;;;;;13.32;8.07;;;;;;;;;;5049799;28;20021;-53
2024/02/14 03:49:40;;;;;;;13.35;7.90;;;;;;;;;;5049795;28;20560;-53
2024/02/14 03:52:09;;;;;;;13.30;7.80;;;;;;;;;;5052410;28;20104;-48
2024/02/14 03:54:36;;;;;;;13.50;8.43;;;;;;;;;;5053821;28;20417;-53
2024/02/14 03:57:02;;;;;;;13.30;8.00;;;;;;;;;;5053637;28;20029;-53
2024/02/14 03:59:28;;;;;;;14.55;8.60;;;;;;;;;;5053662;28;20075;-55
2024/02/14 04:01:54;;;;;;;14.15;8.88;;;;;;;;;;5053373;28;20486;-52
2024/02/14 04:04:20;;;;;;;12.90;7.53;;;;;;;;;;5052009;28;20029;-53
2024/02/14 04:06:46;;;;;;;21.40;8.52;;;;;;;;;;5053439;28;20024;-50
2024/02/14 04:09:12;;;;;;;13.20;7.68;;;;;;;;;;5053223;28;20032;-54
2024/02/14 04:11:38;;;;;;;20.48;7.80;;;;;;;;;;5053092;28;20029;-53
2024/02/14 04:14:04;;;;;;;12.55;7.32;;;;;;;;;;5053297;28;20059;-53
2024/02/14 04:16:30;;;;;;;13.73;8.13;;;;;;;;;;5053263;28;20025;-55
2024/02/14 04:18:56;;;;;;;13.50;8.30;;;;;;;;;;5053156;28;20037;-54
2024/02/14 04:21:22;;;;;;;14.00;9.30;;;;;;;;;;5051842;28;20032;-53
2024/02/14 04:23:48;;;;;;;14.35;10.70;;;;;;;;;;5052879;28;20025;-54
2024/02/14 04:26:20;;;;;;;18.25;16.13;;;;;;;;;;5053419;28;20677;-51
2024/02/14 04:28:46;;;;;;;25.75;23.55;;;;;;;;;;5053203;28;20099;-53
2024/02/14 04:31:12;;;;;;;33.05;30.45;;;;;;;;;;5053392;28;20590;-54
2024/02/14 04:33:38;;;;;;;35.38;32.67;;;;;;;;;;5053347;28;20025;-53
2024/02/14 04:36:05;;;;;;;37.67;34.80;;;;;;;;;;5051827;28;20110;-55
2024/02/14 04:38:31;;;;;;;36.67;33.97;;;;;;;;;;5053115;28;20031;-53
2024/02/14 04:40:58;;;;;;;38.47;35.67;;;;;;;;;;5052725;28;20402;-46
2024/02/14 04:43:24;;;;;;;43.50;40.33;;;;;;;;;;5050884;28;20037;-52
2024/02/14 04:45:51;;;;;;;40.30;37.30;;;;;;;;;;5052587;28;20021;-53
2024/02/14 04:48:17;;;;;;;40.67;37.78;;;;;;;;;;5051427;28;20029;-54
2024/02/14 04:50:43;;;;;;;42.00;39.00;;;;;;;;;;5052406;28;20091;-51
2024/02/14 04:53:09;;;;;;;45.28;42.03;;;;;;;;;;5052287;28;20028;-55
2024/02/14 04:55:35;;;;;;;41.05;38.15;;;;;;;;;;5052654;28;20033;-53
2024/02/14 04:58:02;;;;;;;40.97;38.08;;;;;;;;;;5052537;28;20029;-53
2024/02/14 05:00:28;;;;;;;45.53;42.13;;;;;;;;;;5052690;28;20027;-53
2024/02/14 05:02:54;;;;;;;41.00;38.10;;;;;;;;;;5052052;28;20399;-52
2024/02/14 05:05:20;;;;;;;42.40;39.22;;;;;;;;;;5051200;28;20075;-49
2024/02/14 05:07:47;;;;;;;33.97;31.38;;;;;;;;;;5051625;28;20020;-49
2024/02/14 05:10:13;;;;;;;34.38;31.77;;;;;;;;;;5052765;28;20099;-53
2024/02/14 05:12:40;;;;;;;34.72;32.13;;;;;;;;;;5052262;28;20052;-48
2024/02/14 05:15:06;;;;;;;34.55;31.95;;;;;;;;;;5052512;28;20031;-51
2024/02/14 05:17:32;;;;;;;31.63;29.23;;;;;;;;;;5052510;28;20395;-50
2024/02/14 05:19:58;;;;;;;32.55;30.05;;;;;;;;;;5052054;28;20029;-56
2024/02/14 05:22:24;;;;;;;35.33;32.42;;;;;;;;;;5051927;28;20411;-52
2024/02/14 05:24:50;;;;;;;36.35;33.65;;;;;;;;;;5052050;28;20045;-53
2024/02/14 05:27:16;;;;;;;33.53;30.83;;;;;;;;;;5052086;28;20060;-52
2024/02/14 05:29:42;;;;;;;33.65;31.05;;;;;;;;;;5051952;28;20040;-54
2024/02/14 05:32:09;;;;;;;33.38;30.85;;;;;;;;;;5050472;28;20057;-57
2024/02/14 05:34:35;;;;;;;31.65;29.25;;;;;;;;;;5051917;28;20048;-54
2024/02/14 05:37:01;;;;;;;32.92;30.42;;;;;;;;;;5051615;28;20112;-55
2024/02/14 05:39:27;;;;;;;34.63;31.83;;;;;;;;;;5051494;28;20096;-47
2024/02/14 05:41:54;;;;;;;34.72;32.10;;;;;;;;;;5051285;28;20479;-55
2024/02/14 05:44:20;;;;;;;32.95;30.45;;;;;;;;;;5051601;28;20021;-54
2024/02/14 05:46:47;;;;;;;36.78;34.05;;;;;;;;;;5051576;28;20461;-58
2024/02/14 05:49:14;;;;;;;35.05;32.45;;;;;;;;;;5051700;28;20096;-53
2024/02/14 05:51:40;;;;;;;39.33;36.42;;;;;;;;;;5051035;28;20131;-54
2024/02/14 05:54:06;;;;;;;39.03;35.53;;;;;;;;;;5051371;28;20673;-55
2024/02/14 05:56:32;;;;;;;35.38;32.67;;;;;;;;;;5051494;28;20031;-53
2024/02/14 05:58:58;;;;;;;35.22;32.53;;;;;;;;;;5051312;28;20110;-50
2024/02/14 06:01:24;;;;;;;34.70;32.10;;;;;;;;;;5051194;28;20017;-54
2024/02/14 06:03:50;;;;;;;36.53;33.83;;;;;;;;;;5050794;28;20029;-55
2024/02/14 06:06:16;;;;;;;35.75;33.05;;;;;;;;;;5051846;28;20466;-52
2024/02/14 06:08:42;;;;;;;37.85;35.00;;;;;;;;;;5051110;28;20017;-52
2024/02/14 06:11:08;;;;;;;35.58;32.88;;;;;;;;;;5050926;28;20421;-54
2024/02/14 06:13:35;;;;;;;36.72;33.92;;;;;;;;;;5050703;28;20053;-51
2024/02/14 06:16:02;;;;;;;35.70;33.00;;;;;;;;;;5049948;28;20082;-55
2024/02/14 06:18:28;;;;;;;35.97;33.28;;;;;;;;;;5049353;28;20021;-50
2024/02/14 06:20:54;;;;;;;36.45;33.70;;;;;;;;;;5050671;28;20086;-53
2024/02/14 06:23:20;;;;;;;35.60;32.90;;;;;;;;;;5049620;28;20499;-51
2024/02/14 06:25:46;;;;;;;34.88;32.28;;;;;;;;;;5049309;28;20039;-55
2024/02/14 06:28:12;;;;;;;36.63;33.85;;;;;;;;;;5050699;28;20096;-54
2024/02/14 06:30:38;;;;;;;37.38;34.58;;;;;;;;;;5050550;28;20017;-56
2024/02/14 06:33:04;;;;;;;37.80;34.70;;;;;;;;;;5050221;28;20099;-56
2024/02/14 06:35:30;;;;;;;35.17;32.50;;;;;;;;;;5050461;28;20485;-55
2024/02/14 06:37:56;;;;;;;35.13;32.53;;;;;;;;;;5050662;28;20078;-53
2024/02/14 06:40:22;;;;;;;37.55;34.35;;;;;;;;;;5050475;28;20108;-57
2024/02/14 06:42:50;;;;;;;36.20;33.40;;;;;;;;;;5049950;28;20440;-54
2024/02/14 06:45:17;;;;;;;35.65;32.65;;;;;;;;;;5050350;28;20052;-57
2024/02/14 06:47:43;;;;;;;35.67;32.88;;;;;;;;;;5050444;28;20029;-54
2024/02/14 06:50:09;;;;;;;34.35;31.65;;;;;;;;;;5050151;28;20036;-52
2024/02/14 06:52:35;;;;;;;36.33;33.42;;;;;;;;;;5049902;28;20040;-51
2024/02/14 06:55:03;;;;;;;35.05;32.35;;;;;;;;;;5049671;28;20471;-54
2024/02/14 06:57:29;;;;;;;34.00;31.40;;;;;;;;;;5048548;28;20024;-53
2024/02/14 06:59:55;;;;;;;35.22;32.63;;;;;;;;;;5049832;28;20471;-53
2024/02/14 07:02:21;;;;;;;34.35;31.75;;;;;;;;;;5049486;28;20103;-54
2024/02/14 07:04:47;;;;;;;33.88;31.27;;;;;;;;;;5049587;28;20036;-56
2024/02/14 07:07:13;;;;;;;35.08;32.40;;;;;;;;;;5050167;28;20024;-50
2024/02/14 07:09:39;;;;;;;33.50;31.00;;;;;;;;;;5049787;28;20108;-52
2024/02/14 07:12:05;;;;;;;35.30;32.60;;;;;;;;;;5049370;28;20039;-55
2024/02/14 07:14:32;;;;;;;35.25;32.55;;;;;;;;;;5049754;28;20104;-52
2024/02/14 07:16:58;;;;;;;36.72;33.78;;;;;;;;;;5047820;28;20037;-51
2024/02/14 07:19:24;;;;;;;34.90;32.30;;;;;;;;;;5042045;28;20029;-52
2024/02/14 07:21:50;;;;;;;35.25;32.65;;;;;;;;;;5048752;28;20391;-54
2024/02/14 07:24:16;;;;;;;35.83;33.13;;;;;;;;;;5049590;28;20021;-50
2024/02/14 07:26:44;;;;;;;36.17;33.38;;;;;;;;;;5039559;28;20020;-49
2024/02/14 07:29:10;;;;;;;33.72;31.13;;;;;;;;;;5035992;28;20026;-54
2024/02/14 07:31:36;;;;;;;33.70;31.15;;;;;;;;;;5036298;28;20391;-53
2024/02/14 07:34:03;;;;;;;37.03;34.33;;;;;;;;;;5039898;28;20025;-53
2024/02/14 07:36:29;;;;;;;35.72;33.03;;;;;;;;;;5071591;28;20024;-53
2024/02/14 07:38:55;;;;;;;34.40;31.80;;;;;;;;;;5056242;28;20028;-50
2024/02/14 07:41:21;;;;;;;34.58;31.98;;;;;;;;;;5055953;28;20017;-53
2024/02/14 07:43:47;;;;;;;33.75;31.13;;;;;;;;;;5056090;28;20036;-52
2024/02/14 07:46:19;;;;;;;34.90;32.28;;;;;;;;;;5056289;28;20025;-53
2024/02/14 07:48:45;;;;;;;34.05;31.45;;;;;;;;;;5055905;28;20135;-55
2024/02/14 07:51:12;;;;;;;32.75;30.27;;;;;;;;;;5051406;28;20017;-55
2024/02/14 07:53:38;;;;;;;32.10;29.70;;;;;;;;;;5036261;28;20025;-53
2024/02/14 07:56:04;;;;;;;31.20;28.80;;;;;;;;;;5034507;28;20368;-49
2024/02/14 07:58:30;;;;;;;32.53;29.75;;;;;;;;;;5036406;28;20067;-54
2024/02/14 08:00:55;;;;;;;31.70;29.02;;;;;;;;;;5035940;28;20033;-52
2024/02/14 08:03:21;;;;;;;30.13;27.83;;;;;;;;;;5035795;28;20033;-54
2024/02/14 08:05:47;;;;;;;31.77;29.38;;;;;;;;;;5035962;28;20435;-54
2024/02/14 08:08:13;;;;;;;30.60;28.20;;;;;;;;;;5035876;28;20053;-54
2024/02/14 08:10:39;;;;;;;30.52;28.15;;;;;;;;;;5034458;28;20018;-50
2024/02/14 08:13:05;;;;;;;30.25;27.88;;;;;;;;;;5035739;28;20029;-55
2024/02/14 08:15:31;;;;;;;33.28;30.60;;;;;;;;;;5035746;28;20113;-51
2024/02/14 08:17:59;;;;;;;30.15;27.75;;;;;;;;;;5043097;28;20060;-57
2024/02/14 08:20:25;;;;;;;32.65;29.88;;;;;;;;;;5055937;28;20032;-54
2024/02/14 08:22:51;;;;;;;30.67;28.27;;;;;;;;;;5055466;28;20029;-49
2024/02/14 08:25:17;;;;;;;30.60;28.20;;;;;;;;;;5055357;28;20037;-52
2024/02/14 08:27:43;;;;;;;29.98;27.67;;;;;;;;;;5055881;28;20029;-53
2024/02/14 08:30:09;;;;;;;29.30;27.00;;;;;;;;;;5055749;28;20029;-51
2024/02/14 08:32:35;;;;;;;29.98;27.67;;;;;;;;;;5055604;28;20142;-52
2024/02/14 08:35:01;;;;;;;31.33;28.90;;;;;;;;;;5055582;28;20143;-50
2024/02/14 08:37:27;;;;;;;30.23;27.92;;;;;;;;;;5053529;28;20116;-52
2024/02/14 08:39:54;;;;;;;31.60;29.20;;;;;;;;;;5052418;28;20029;-50
2024/02/14 08:42:19;;;;;;;30.75;28.45;;;;;;;;;;5052066;28;20040;-53
2024/02/14 08:44:45;;;;;;;32.38;29.98;;;;;;;;;;5052348;28;20086;-49
2024/02/14 08:47:12;;;;;;;35.78;33.13;;;;;;;;;;5052718;28;20024;-54
2024/02/14 08:49:42;;;;;;;37.92;34.85;;;;;;;;;;5052760;28;20383;-53
2024/02/14 08:52:08;;;;;;;34.10;31.60;;;;;;;;;;5052179;28;20017;-48
2024/02/14 08:54:34;;;;;;;38.55;35.85;;;;;;;;;;5052237;28;20586;-53
2024/02/14 08:57:00;;;;;;;40.22;37.20;;;;;;;;;;5052405;28;20071;-52
2024/02/14 08:59:26;;;;;;;40.22;37.42;;;;;;;;;;5052273;28;20793;-52
2024/02/14 09:01:52;;;;;;;40.03;37.10;;;;;;;;;;5052109;28;20032;-52
2024/02/14 09:04:18;;;;;;;44.30;40.88;;;;;;;;;;5052113;28;20078;-49
2024/02/14 09:06:45;;;;;;;41.67;38.78;;;;;;;;;;5067828;28;20471;-53
2024/02/14 09:09:11;;;;;;;40.45;37.55;;;;;;;;;;5052284;28;20063;-55
2024/02/14 09:11:38;;;;;;;39.92;37.05;;;;;;;;;;5052353;28;20036;-53
2024/02/14 09:14:06;;;;;;;42.05;39.13;;;;;;;;;;5052673;28;20021;-52
2024/02/14 09:16:35;;;;;;;41.97;38.97;;;;;;;;;;5052142;28;20024;-55
2024/02/14 09:19:01;;;;;;;40.10;37.30;;;;;;;;;;5052534;28;20021;-56
2024/02/14 09:21:28;;;;;;;41.05;37.97;;;;;;;;;;5051949;28;20597;-57
2024/02/14 09:23:54;;;;;;;39.15;36.35;;;;;;;;;;5051953;28;20100;-54
2024/02/14 09:26:20;;;;;;;38.38;35.67;;;;;;;;;;5051888;28;20025;-51
2024/02/14 09:28:46;;;;;;;40.17;37.28;;;;;;;;;;5052167;28;20079;-57
2024/02/14 09:31:12;;;;;;;40.78;37.75;;;;;;;;;;5052046;28;20016;-58
2024/02/14 09:33:39;;;;;;;41.42;38.33;;;;;;;;;;5052154;28;20021;-54
2024/02/14 09:36:06;;;;;;;42.30;39.15;;;;;;;;;;5052017;28;20021;-55
2024/02/14 09:38:32;;;;;;;41.33;38.30;;;;;;;;;;5051594;28;20029;-50
2024/02/14 09:41:02;;;;;;;38.65;35.85;;;;;;;;;;5052066;28;20029;-53
2024/02/14 09:43:40;;;;;;;38.00;35.30;;;;;;;;;;5051773;28;20031;-55
2024/02/14 09:46:07;;;;;;;38.97;36.03;;;;;;;;;;5051101;28;20104;-53
2024/02/14 09:48:34;;;;;;;39.30;36.40;;;;;;;;;;5051320;28;20036;-53
2024/02/14 09:51:00;;;;;;;38.13;35.38;;;;;;;;;;5050532;28;20312;-52
2024/02/14 09:53:26;;;;;;;37.20;34.58;;;;;;;;;;5049682;28;20078;-53
2024/02/14 09:55:53;;;;;;;38.60;35.85;;;;;;;;;;5051043;28;20033;-54
2024/02/14 09:58:20;;;;;;;36.15;33.55;;;;;;;;;;5050830;28;20042;-54
2024/02/14 10:00:46;;;;;;;37.08;34.22;;;;;;;;;;5049895;28;20029;-54
2024/02/14 10:03:12;;;;;;;35.53;32.75;;;;;;;;;;5050844;28;20171;-50
2024/02/14 10:05:38;;;;;;;33.45;30.95;;;;;;;;;;5050811;28;20078;-52
2024/02/14 10:08:04;;;;;;;33.33;30.83;;;;;;;;;;5051025;28;20017;-55
2024/02/14 10:10:35;;;;;;;33.10;30.52;;;;;;;;;;5050853;28;20021;-54
2024/02/14 10:13:01;;;;;;;33.38;30.88;;;;;;;;;;5050752;28;20108;-54
2024/02/14 10:15:27;;;;;;;33.00;30.50;;;;;;;;;;5050602;28;20036;-54
2024/02/14 10:17:53;;;;;;;34.47;31.88;;;;;;;;;;5050242;28;20029;-54
2024/02/14 10:20:21;;;;;;;33.08;30.25;;;;;;;;;;5050828;28;20030;-53
2024/02/14 10:22:48;;;;;;;33.42;30.92;;;;;;;;;;5050755;28;20410;-53
2024/02/14 10:25:14;;;;;;;35.85;33.15;;;;;;;;;;5050332;28;20029;-51
2024/02/14 10:27:40;;;;;;;34.30;31.63;;;;;;;;;;5050687;28;20056;-56
2024/02/14 10:30:09;;;;;;;33.47;30.60;;;;;;;;;;5050233;28;20487;-51
2024/02/14 10:32:40;;;;;;;32.80;30.30;;;;;;;;;;5050637;28;20029;-51
2024/02/14 10:35:11;;;;;;;35.45;32.85;;;;;;;;;;5051049;28;20017;-55
2024/02/14 10:37:37;;;;;;;30.98;28.58;;;;;;;;;;5051581;28;20063;-54
2024/02/14 10:40:04;;;;;;;31.05;28.65;;;;;;;;;;5051064;28;20116;-55
2024/02/14 10:42:31;;;;;;;35.20;32.60;;;;;;;;;;5050494;28;20124;-54
2024/02/14 10:44:57;;;;;;;35.40;32.80;;;;;;;;;;5049955;28;20025;-55
2024/02/14 10:47:26;;;;;;;34.42;31.92;;;;;;;;;;5050260;28;20029;-54
2024/02/14 10:49:52;;;;;;;;;;;;;;;;;;5050481;28;20090;-53
2024/02/14 10:52:18;;;;;;;35.50;32.90;;;;;;;;;;5049926;28;20388;-58
2024/02/14 10:54:49;;;;;;;37.67;34.97;;;;;;;;;;5048740;28;20025;-53
2024/02/14 10:57:16;;;;;;;38.75;35.95;;;;;;;;;;5046381;28;20068;-55
2024/02/14 10:59:45;;;;;;;39.47;36.42;;;;;;;;;;5048952;28;20417;-55
2024/02/14 11:02:11;;;;;;;;;;;;;;;;;;5049742;28;20036;-54
2024/02/14 11:04:37;;;;;;;39.00;36.20;;;;;;;;;;5049848;28;19917;-56
2024/02/14 11:07:09;;;;;;;41.83;38.80;;;;;;;;;;5047152;28;20032;-54
2024/02/14 11:09:38;;;;;;;37.95;35.22;;;;;;;;;;5040056;28;20117;-55
2024/02/14 11:12:08;;;;;;;40.05;37.15;;;;;;;;;;5039606;28;20032;-54
2024/02/14 11:14:35;;;;;;;38.78;36.00;;;;;;;;;;5039466;28;20028;-54
2024/02/14 11:17:01;;;;;;;39.20;36.40;;;;;;;;;;5041663;28;20048;-54
2024/02/14 11:19:35;;;;;;;40.75;37.85;;;;;;;;;;5049587;28;20086;-53
2024/02/14 11:22:11;;;;;;;39.50;36.70;;;;;;;;;;5049933;28;20049;-52
2024/02/14 11:24:38;;;;;;;39.25;36.45;;;;;;;;;;5049440;28;20013;-54
2024/02/14 11:27:04;;;;;;;40.10;37.30;;;;;;;;;;5049717;28;20017;-51
2024/02/14 11:29:33;;;;;;;40.47;37.53;;;;;;;;;;5049439;28;20033;-55
2024/02/14 11:32:02;;;;;;;39.63;36.83;;;;;;;;;;5048777;28;20108;-53
2024/02/14 11:34:31;;;;;;;40.28;37.38;;;;;;;;;;5047894;28;20029;-47
2024/02/14 11:36:59;;;;;;;40.92;37.97;;;;;;;;;;5049467;28;20359;-55
2024/02/14 11:39:25;;;;;;;39.08;36.08;;;;;;;;;;5049209;28;20021;-56
2024/02/14 11:41:51;;;;;;;37.75;35.05;;;;;;;;;;5048791;28;20391;-52
2024/02/14 11:44:21;;;;;;;37.55;34.63;;;;;;;;;;5049202;28;20479;-52
2024/02/14 11:46:48;;;;;;;35.30;32.65;;;;;;;;;;5049560;28;20029;-55
2024/02/14 11:49:14;;;;;;;35.72;32.92;;;;;;;;;;5049611;28;20606;-56
2024/02/14 11:51:41;;;;;;;31.02;28.67;;;;;;;;;;5049028;28;20032;-54
2024/02/14 11:54:07;;;;;;;31.75;28.80;;;;;;;;;;5049338;28;20025;-52
2024/02/14 11:56:37;;;;;;;29.27;26.98;;;;;;;;;;5049609;28;20062;-53
2024/02/14 11:59:04;;;;;;;27.42;25.23;;;;;;;;;;5049349;28;20509;-51
2024/02/14 12:01:37;;;;;;;27.95;25.65;;;;;;;;;;5048952;28;20116;-54
2024/02/14 12:04:07;;;;;;;27.23;24.90;;;;;;;;;;5048578;28;20056;-53
2024/02/14 12:06:37;;;;;;;28.50;26.20;;;;;;;;;;5050217;28;20044;-52
2024/02/14 12:09:09;;;;;;;27.33;25.13;;;;;;;;;;5049251;28;20029;-52
2024/02/14 12:11:38;;;;;;;29.13;26.58;;;;;;;;;;5049139;28;20491;-53
2024/02/14 12:14:08;;;;;;;25.85;23.75;;;;;;;;;;5050422;28;20025;-56
2024/02/14 12:16:36;;;;;;;26.98;24.77;;;;;;;;;;5053105;28;20303;-52
2024/02/14 12:19:09;;;;;;;26.60;24.40;;;;;;;;;;5052709;28;20033;-51
2024/02/14 12:21:39;;;;;;;26.33;24.08;;;;;;;;;;5052876;28;20044;-53
2024/02/14 12:24:08;;;;;;;25.65;23.55;;;;;;;;;;5051289;28;20027;-56
2024/02/14 12:26:38;;;;;;;25.45;23.35;;;;;;;;;;5053018;28;20091;-52
2024/02/14 12:29:04;;;;;;;25.90;23.80;;;;;;;;;;5052775;28;20068;-55
2024/02/14 12:31:30;;;;;;;24.70;22.70;;;;;;;;;;5052207;28;20637;-50
2024/02/14 12:34:01;;;;;;;25.42;23.33;;;;;;;;;;5051095;28;20052;-51
2024/02/14 12:36:31;;;;;;;25.27;23.17;;;;;;;;;;5052794;28;20397;-53
2024/02/14 12:38:57;;;;;;;25.85;23.75;;;;;;;;;;5052525;28;20293;-51
2024/02/14 12:41:25;;;;;;;24.23;22.23;;;;;;;;;;5053084;28;20074;-52
2024/02/14 12:43:51;;;;;;;24.45;22.45;;;;;;;;;;5052825;28;20033;-57
2024/02/14 12:46:17;;;;;;;24.92;22.83;;;;;;;;;;5053037;28;20021;-56
2024/02/14 12:48:44;;;;;;;24.55;22.55;;;;;;;;;;5052922;28;20186;-57
2024/02/14 12:51:10;;;;;;;24.45;22.45;;;;;;;;;;5053195;28;20368;-52
2024/02/14 12:53:36;;;;;;;24.35;22.35;;;;;;;;;;5051716;28;20036;-56
2024/02/14 12:56:04;;;;;;;24.38;22.38;;;;;;;;;;5052302;28;20162;-55
2024/02/14 12:58:30;;;;;;;35.08;24.95;;;;;;;;;;5052018;28;20021;-56
2024/02/14 13:00:56;;;;;;;23.67;21.67;;;;;;;;;;5050740;28;20031;-58
2024/02/14 13:03:22;;;;;;;23.23;21.23;;;;;;;;;;5051699;28;20025;-53
2024/02/14 13:05:48;;;;;;;23.58;21.58;;;;;;;;;;5051936;28;20052;-51
2024/02/14 13:08:16;;;;;;;22.17;20.27;;;;;;;;;;5051928;28;20024;-54
2024/02/14 13:10:42;;;;;;;22.73;20.83;;;;;;;;;;5050919;28;20013;-54
2024/02/14 13:13:09;;;;;;;23.95;21.73;;;;;;;;;;5051665;28;20283;-52
2024/02/14 13:15:35;;;;;;;23.92;21.90;;;;;;;;;;5052196;28;20029;-52
2024/02/14 13:18:02;;;;;;;21.55;19.65;;;;;;;;;;5052195;28;20407;-55
2024/02/14 13:20:28;;;;;;;21.90;20.00;;;;;;;;;;5052015;28;20074;-56
2024/02/14 13:22:54;;;;;;;22.80;20.80;;;;;;;;;;5051637;28;20029;-56
2024/02/14 13:25:21;;;;;;;22.27;20.38;;;;;;;;;;5051717;28;20035;-52
2024/02/14 13:27:47;;;;;;;21.15;19.25;;;;;;;;;;5052135;28;20445;-53
2024/02/14 13:30:13;;;;;;;22.30;20.10;;;;;;;;;;5051901;28;20048;-52
2024/02/14 13:32:39;;;;;;;20.98;19.08;;;;;;;;;;5051326;28;20021;-55
2024/02/14 13:35:05;;;;;;;20.67;18.77;;;;;;;;;;5051710;28;20033;-52
2024/02/14 13:37:32;;;;;;;20.17;18.38;;;;;;;;;;5052020;28;20029;-52
2024/02/14 13:39:58;;;;;;;19.88;18.08;;;;;;;;;;5051989;28;20044;-53
2024/02/14 13:42:24;;;;;;;19.33;17.52;;;;;;;;;;5051250;28;20233;-53
2024/02/14 13:44:50;;;;;;;19.25;17.45;;;;;;;;;;5051598;28;20115;-52
2024/02/14 13:47:19;;;;;;;17.58;15.88;;;;;;;;;;5051655;28;20497;-51
2024/02/14 13:49:45;;;;;;;17.88;16.08;;;;;;;;;;5052022;28;20467;-53
2024/02/14 13:52:11;;;;;;;16.90;15.20;;;;;;;;;;5051323;28;20311;-56
2024/02/14 13:54:37;;;;;;;16.30;14.60;;;;;;;;;;5049411;28;20110;-56
2024/02/14 13:57:03;;;;;;;15.77;14.07;;;;;;;;;;5051416;28;20087;-54
2024/02/14 13:59:29;;;;;;;15.20;12.98;;;;;;;;;;5051289;28;20425;-53
2024/02/14 14:01:55;;;;;;;15.00;12.75;;;;;;;;;;5051076;28;20101;-52
2024/02/14 14:04:22;;;;;;;15.52;12.52;;;;;;;;;;5051041;28;20029;-54
2024/02/14 14:06:48;;;;;;;14.80;11.80;;;;;;;;;;5049897;28;20082;-55
2024/02/14 14:09:14;;;;;;;14.80;11.93;;;;;;;;;;5050949;28;20387;-52
2024/02/14 14:11:41;;;;;;;15.30;11.90;;;;;;;;;;5050961;28;20021;-52
2024/02/14 14:14:08;;;;;;;16.10;13.70;;;;;;;;;;5051027;28;20039;-52
2024/02/14 14:16:35;;;;;;;15.18;13.00;;;;;;;;;;5051058;28;20018;-55
2024/02/14 14:19:01;;;;;;;16.48;14.77;;;;;;;;;;5049415;28;20021;-54